createdAt,value
2019-05-29T00:00:26.645Z,11.03
2019-05-29T00:05:22.630Z,11.11
2019-05-29T00:10:18.694Z,10.96
2019-05-29T00:15:14.950Z,11.03
2019-05-29T00:20:10.870Z,10.83
2019-05-29T00:25:08.517Z,10.70
2019-05-29T00:30:11.165Z,10.71
2019-05-29T00:35:03.054Z,10.75
2019-05-29T00:39:58.962Z,10.68
2019-05-29T00:44:57.893Z,10.77
2019-05-29T00:49:56.800Z,10.68
2019-05-29T00:54:52.604Z,10.67
2019-05-29T00:59:48.643Z,10.68
2019-05-29T01:04:44.503Z,10.71
2019-05-29T01:09:40.545Z,10.64
2019-05-29T01:14:49.141Z,10.62
2019-05-29T01:19:34.472Z,10.69
2019-05-29T01:24:30.264Z,10.68
2019-05-29T01:29:26.019Z,10.75
2019-05-29T01:34:22.077Z,10.73
2019-05-29T01:39:17.938Z,10.75
2019-05-29T01:44:13.776Z,10.72
2019-05-29T01:49:10.010Z,10.78
2019-05-29T01:54:06.150Z,10.78
2019-05-29T01:59:02.118Z,10.74
2019-05-29T02:03:58.138Z,10.83
2019-05-29T02:08:53.946Z,10.74
2019-05-29T02:13:50.116Z,10.73
2019-05-29T02:18:46.007Z,10.72
2019-05-29T02:23:42.021Z,10.73
2019-05-29T02:28:37.838Z,10.56
2019-05-29T02:33:33.704Z,10.63
2019-05-29T02:38:29.547Z,10.65
2019-05-29T02:43:26.054Z,10.60
2019-05-29T02:48:23.615Z,10.63
2019-05-29T02:53:22.231Z,10.65
2019-05-29T02:58:18.246Z,10.65
2019-05-29T03:03:14.211Z,10.66
2019-05-29T03:08:10.375Z,10.62
2019-05-29T03:13:06.375Z,10.48
2019-05-29T03:18:02.223Z,10.53
2019-05-29T03:22:58.160Z,10.54
2019-05-29T03:27:54.246Z,10.59
2019-05-29T03:32:50.197Z,10.60
2019-05-29T03:37:46.065Z,10.64
2019-05-29T03:42:41.882Z,10.60
2019-05-29T03:47:37.818Z,10.63
2019-05-29T03:52:34.653Z,10.67
2019-05-29T03:57:31.761Z,10.65
2019-05-29T04:08:08.251Z,10.68
2019-05-29T04:13:05.144Z,10.75
2019-05-29T04:18:05.182Z,10.81
2019-05-29T04:23:04.556Z,10.86
2019-05-29T04:28:06.930Z,10.94
2019-05-29T04:33:02.839Z,10.95
2019-05-29T04:37:58.981Z,11.00
2019-05-29T04:42:54.888Z,11.06
2019-05-29T04:48:01.830Z,11.09
2019-05-29T04:52:58.076Z,11.15
2019-05-29T04:57:57.426Z,11.18
2019-05-29T05:02:53.351Z,11.26
2019-05-29T05:07:49.162Z,11.34
2019-05-29T05:12:45.439Z,11.40
2019-05-29T05:17:41.284Z,11.41
2019-05-29T05:22:38.191Z,11.48
2019-05-29T05:27:34.177Z,11.53
2019-05-29T05:32:30.797Z,11.62
2019-05-29T05:37:31.214Z,11.71
2019-05-29T05:42:29.293Z,11.73
2019-05-29T05:47:43.087Z,11.84
2019-05-29T05:52:23.052Z,11.94
2019-05-29T05:57:21.196Z,11.93
2019-05-29T06:02:17.293Z,11.99
2019-05-29T06:07:13.074Z,12.08
2019-05-29T06:12:09.143Z,12.11
2019-05-29T06:17:05.257Z,12.33
2019-05-29T06:22:01.140Z,12.46
2019-05-29T06:26:57.084Z,12.40
2019-05-29T06:31:55.776Z,12.43
2019-05-29T06:36:51.710Z,12.55
2019-05-29T06:41:47.704Z,12.80
2019-05-29T06:46:45.489Z,12.98
2019-05-29T06:51:41.587Z,13.24
2019-05-29T06:56:37.734Z,13.08
2019-05-29T07:01:33.585Z,13.19
2019-05-29T07:06:29.361Z,13.12
2019-05-29T07:11:25.134Z,13.15
2019-05-29T07:16:20.970Z,13.47
2019-05-29T07:21:16.780Z,13.60
2019-05-29T07:26:12.545Z,13.54
2019-05-29T07:31:10.682Z,13.56
2019-05-29T07:36:06.546Z,13.72
2019-05-29T07:41:02.897Z,14.05
2019-05-29T07:45:59.040Z,14.24
2019-05-29T07:51:06.900Z,14.44
2019-05-29T07:55:59.986Z,14.17
2019-05-29T08:01:11.636Z,14.13
2019-05-29T08:05:53.987Z,13.95
2019-05-29T08:10:51.541Z,13.81
2019-05-29T08:15:59.741Z,13.58
2019-05-29T08:20:46.433Z,13.25
2019-05-29T08:26:48.932Z,13.44
2019-05-29T08:32:14.592Z,13.47
2019-05-29T08:37:58.756Z,13.40
2019-05-29T08:42:59.321Z,13.61
2019-05-29T08:47:58.107Z,13.86
2019-05-29T08:59:02.709Z,13.93
2019-05-29T09:03:49.125Z,13.88
2019-05-29T09:08:46.650Z,13.92
2019-05-29T09:13:42.728Z,14.13
2019-05-29T09:18:38.568Z,14.39
2019-05-29T09:23:36.687Z,14.48
2019-05-29T09:28:29.857Z,13.98
2019-05-29T09:33:25.881Z,13.47
2019-05-29T09:38:23.043Z,13.22
2019-05-29T09:43:19.966Z,13.17
2019-05-29T09:48:20.290Z,13.25
2019-05-29T09:53:14.334Z,13.39
2019-05-29T09:58:16.665Z,13.63
2019-05-29T10:03:12.577Z,13.80
2019-05-29T10:08:08.636Z,14.18
2019-05-29T10:13:04.714Z,14.62
2019-05-29T10:18:02.607Z,15.05
2019-05-29T10:22:59.079Z,15.34
2019-05-29T10:27:57.103Z,15.24
2019-05-29T10:32:58.389Z,15.13
2019-05-29T10:38:27.506Z,15.61
2019-05-29T10:43:51.295Z,17.52
2019-05-29T10:48:49.255Z,17.90
2019-05-29T10:54:14.896Z,16.90
2019-05-29T10:59:13.173Z,15.66
2019-05-29T11:04:09.174Z,14.69
2019-05-29T11:09:08.266Z,13.93
2019-05-29T11:14:03.868Z,13.23
2019-05-29T11:18:59.910Z,12.71
2019-05-29T11:23:58.250Z,12.75
2019-05-29T11:28:54.582Z,13.22
2019-05-29T11:33:50.772Z,14.12
2019-05-29T11:38:47.627Z,14.65
2019-05-29T11:43:45.694Z,15.20
2019-05-29T11:48:41.676Z,15.14
2019-05-29T11:53:37.644Z,14.79
2019-05-29T11:58:33.688Z,14.70
2019-05-29T12:03:29.491Z,14.58
2019-05-29T12:08:25.306Z,14.14
2019-05-29T12:13:21.331Z,13.93
2019-05-29T12:18:23.602Z,13.84
2019-05-29T12:23:25.595Z,13.94
2019-05-29T12:28:12.427Z,14.28
2019-05-29T12:33:08.661Z,14.47
2019-05-29T12:38:10.491Z,14.68
2019-05-29T12:43:03.657Z,15.19
2019-05-29T12:48:15.059Z,15.66
2019-05-29T12:53:28.272Z,16.15
2019-05-29T12:58:08.614Z,16.14
2019-05-29T13:03:28.335Z,15.84
2019-05-29T13:08:21.499Z,15.86
2019-05-29T13:13:24.619Z,15.81
2019-05-29T13:18:17.881Z,16.28
2019-05-29T13:23:20.034Z,16.96
2019-05-29T13:28:13.830Z,16.63
2019-05-29T13:33:20.401Z,16.89
2019-05-29T13:38:18.384Z,17.10
2019-05-29T13:43:16.464Z,17.11
2019-05-29T13:48:12.069Z,16.92
2019-05-29T13:53:07.983Z,17.08
2019-05-29T13:58:03.901Z,17.28
2019-05-29T14:03:42.658Z,16.99
2019-05-29T14:09:28.922Z,16.66
2019-05-29T14:14:24.981Z,16.46
2019-05-29T14:19:20.980Z,16.24
2019-05-29T14:24:28.633Z,16.03
2019-05-29T14:29:15.430Z,15.78
2019-05-29T14:34:13.410Z,15.28
2019-05-29T14:39:10.063Z,14.91
2019-05-29T14:44:07.812Z,14.61
2019-05-29T14:49:13.495Z,14.54
2019-05-29T14:54:02.792Z,14.23
2019-05-29T14:58:58.740Z,14.06
2019-05-29T15:04:01.510Z,14.03
2019-05-29T15:08:57.513Z,13.51
2019-05-29T15:13:53.649Z,13.23
2019-05-29T15:18:49.707Z,13.18
2019-05-29T15:23:45.565Z,13.21
2019-05-29T15:28:49.009Z,13.21
2019-05-29T15:33:45.164Z,13.37
2019-05-29T15:38:41.200Z,13.45
2019-05-29T15:43:37.321Z,13.54
2019-05-29T15:48:33.496Z,13.71
2019-05-29T15:53:29.926Z,13.85
2019-05-29T15:58:26.620Z,13.98
2019-05-29T16:09:18.699Z,14.33
2019-05-29T16:14:30.843Z,14.48
2019-05-29T16:20:02.894Z,14.24
2019-05-29T16:25:40.466Z,13.69
2019-05-29T16:42:48.934Z,13.50
2019-05-29T17:01:55.312Z,13.49
2019-05-29T17:45:19.520Z,13.50
2019-05-29T17:50:13.266Z,13.50
2019-05-29T17:55:10.143Z,13.32
2019-05-29T18:00:08.471Z,13.27
2019-05-29T18:05:04.792Z,13.19
2019-05-29T18:10:10.291Z,13.17
2019-05-29T18:15:07.313Z,13.11
2019-05-29T18:20:03.711Z,13.24
2019-05-29T18:25:02.511Z,13.25
2019-05-29T18:30:00.749Z,13.26
2019-05-29T18:34:56.906Z,13.08
2019-05-29T18:39:53.149Z,13.06
2019-05-29T18:44:50.354Z,13.02
2019-05-29T18:49:49.503Z,12.93
